Flugplatz Hof-Plauen

Prognose für EDQM

vom 26.09. um 17:00 UTC

Am 26.09. zwischen 18:00 UTC und 03:00 UTC

Wind 5 kt aus 230°

Sichtweite 10 km oder mehr

bedeckt in 2500 ft


Am 26.09. zwischen 18:00 und 21:00 UTC übergehend zu

Wind 5 kt aus 230°

Sichtweite 10 km oder mehr

aufgebrochene Bewölkung in 500 ft

TAF EDQM 261700Z 2618/2703 23005KT 9999 OVC025 BECMG 2618/2621 BKN005
Impressum